Time;durP1;ratioP1;P1;durP2;ratioP2;P2;SDS_P1;SDS_P2;PMS_P1;PMS_P2;Temp;Humidity;BMP_temperature;BMP_pressure;BME280_temperature;BME280_humidity;BME280_pressure;Samples;Min_cycle;Max_cycle;Signal;HPM_P1;HPM_P2
2024/04/14 00:00:11;;;;;;;;;;;;;;;17.83;100.00;101958.13;5371717;26;1221;-64
2024/04/14 00:02:39;;;;;;;;;;;;;;;17.83;100.00;101958.13;5342197;26;1441;-64
2024/04/14 00:05:04;;;;;;;;;;;;;;;17.79;100.00;101956.97;5308765;26;1876;-63
2024/04/14 00:07:30;;;;;;;;;;;;;;;17.77;100.00;101959.94;5353497;26;1355;-64
2024/04/14 00:09:55;;;;;;;;;;;;;;;17.74;100.00;101955.81;5371364;26;1547;-64
2024/04/14 00:12:20;;;;;;;;;;;;;;;17.72;100.00;101963.34;5371617;26;1299;-63
2024/04/14 00:14:46;;;;;;;;;;;;;;;17.69;100.00;101958.38;5337087;26;1183;-64
2024/04/14 00:17:11;;;;;;;;;;;;;;;17.68;100.00;101962.19;5365120;26;1280;-64
2024/04/14 00:19:36;;;;;;;;;;;;;;;17.64;100.00;101961.00;5358211;26;1395;-64
2024/04/14 00:22:01;;;;;;;;;;;;;;;17.62;100.00;101967.72;5334998;26;1158;-62
2024/04/14 00:24:27;;;;;;;;;;;;;;;17.61;100.00;101961.47;5363339;26;1323;-63
2024/04/14 00:26:52;;;;;;;;;;;;;;;17.60;100.00;101961.72;5367523;26;1857;-64
2024/04/14 00:29:17;;;;;;;;;;;;;;;17.60;100.00;101959.81;5354423;26;1508;-64
2024/04/14 00:31:43;;;;;;;;;;;;;;;17.56;100.00;101964.91;5332894;26;1329;-64
2024/04/14 00:34:10;;;;;;;;;;;;;;;17.52;100.00;101963.72;5373915;26;1141;-64
2024/04/14 00:36:35;;;;;;;;;;;;;;;17.53;100.00;101964.53;5350713;26;1350;-64
2024/04/14 00:39:01;;;;;;;;;;;;;;;17.53;100.00;101967.25;5372504;26;1412;-64
2024/04/14 00:41:26;;;;;;;;;;;;;;;17.52;100.00;101962.91;5371914;26;1168;-65
2024/04/14 00:43:51;;;;;;;;;;;;;;;17.49;100.00;101966.09;5373063;26;1349;-65
2024/04/14 00:46:17;;;;;;;;;;;;;;;17.53;100.00;101969.94;5342500;26;1837;-65
2024/04/14 00:48:42;;;;;;;;;;;;;;;17.50;100.00;101973.13;5374549;26;1294;-65
2024/04/14 00:51:07;;;;;;;;;;;;;;;17.49;100.00;101966.91;5372711;26;1140;-64
2024/04/14 00:53:33;;;;;;;;;;;;;;;17.47;100.00;101968.19;5345296;26;1391;-64
2024/04/14 00:55:58;;;;;;;;;;;;;;;17.45;100.00;101970.31;5374935;26;1103;-64
2024/04/14 00:58:23;;;;;;;;;;;;;;;17.49;100.00;101974.22;5332473;26;1354;-65
2024/04/14 01:00:49;;;;;;;;;;;;;;;17.47;100.00;101974.44;5375218;26;1248;-64
2024/04/14 01:03:14;;;;;;;;;;;;;;;17.45;100.00;101973.84;5373237;26;1297;-64
2024/04/14 01:05:39;;;;;;;;;;;;;;;17.44;100.00;101971.38;5375866;26;1826;-64
2024/04/14 01:08:05;;;;;;;;;;;;;;;17.42;100.00;101981.63;5374939;26;1165;-65
2024/04/14 01:10:30;;;;;;;;;;;;;;;17.40;100.00;101987.31;5375190;26;1612;-64
2024/04/14 01:12:55;;;;;;;;;;;;;;;17.40;100.00;101988.13;5340896;26;1290;-64
2024/04/14 01:15:21;;;;;;;;;;;;;;;17.35;100.00;101985.28;5337149;26;1380;-65
2024/04/14 01:17:46;;;;;;;;;;;;;;;17.35;100.00;101993.44;5376571;26;1234;-65
2024/04/14 01:20:11;;;;;;;;;;;;;;;17.32;100.00;101993.88;5374125;26;1167;-64
2024/04/14 01:22:37;;;;;;;;;;;;;;;17.29;100.00;101993.53;5345495;26;1279;-64
2024/04/14 01:25:08;;;;;;;;;;;;;;;17.25;100.00;102003.16;5366562;26;1829;-64
2024/04/14 01:27:33;;;;;;;;;;;;;;;17.22;100.00;101997.19;5361573;26;1286;-66
2024/04/14 01:29:58;;;;;;;;;;;;;;;17.17;100.00;101994.31;5336727;26;1205;-65
2024/04/14 01:32:24;;;;;;;;;;;;;;;17.16;100.00;102003.53;5376277;26;1226;-65
2024/04/14 01:34:49;;;;;;;;;;;;;;;17.16;100.00;101999.97;5342296;26;1374;-64
2024/04/14 01:37:14;;;;;;;;;;;;;;;17.11;100.00;101995.25;5315184;26;1623;-64
2024/04/14 01:39:40;;;;;;;;;;;;;;;17.05;100.00;102001.59;5366587;26;1172;-64
2024/04/14 01:42:05;;;;;;;;;;;;;;;17.05;100.00;101996.19;5365568;26;1291;-64
2024/04/14 01:44:30;;;;;;;;;;;;;;;17.03;100.00;101999.13;5375468;26;1252;-64
2024/04/14 01:46:55;;;;;;;;;;;;;;;17.05;100.00;102007.03;5373905;26;1867;-64
2024/04/14 01:49:21;;;;;;;;;;;;;;;17.01;100.00;102011.25;5313574;26;1956;-65
2024/04/14 01:51:46;;;;;;;;;;;;;;;17.01;100.00;102016.66;5372672;26;1190;-64
2024/04/14 01:54:12;;;;;;;;;;;;;;;16.98;100.00;102023.41;5370189;26;1108;-64
2024/04/14 01:56:37;;;;;;;;;;;;;;;16.97;100.00;102021.75;5374893;26;1306;-64
2024/04/14 01:59:03;;;;;;;;;;;;;;;16.96;100.00;102021.97;5376008;26;1347;-64
2024/04/14 02:01:28;;;;;;;;;;;;;;;16.90;100.00;102017.47;5339639;26;1221;-64
2024/04/14 02:03:53;;;;;;;;;;;;;;;16.92;100.00;102026.19;5362772;26;1376;-64
2024/04/14 02:06:19;;;;;;;;;;;;;;;16.88;100.00;102017.72;5369719;26;1865;-64
2024/04/14 02:08:44;;;;;;;;;;;;;;;16.86;100.00;102020.63;5372092;26;1387;-65
2024/04/14 02:11:09;;;;;;;;;;;;;;;16.86;100.00;102020.63;5373026;26;1232;-65
2024/04/14 02:13:35;;;;;;;;;;;;;;;16.84;100.00;102027.31;5367658;26;1172;-64
2024/04/14 02:16:00;;;;;;;;;;;;;;;16.86;100.00;102036.88;5373783;26;1140;-64
2024/04/14 02:18:26;;;;;;;;;;;;;;;16.78;100.00;102022.81;5345221;26;1252;-64
2024/04/14 02:20:51;;;;;;;;;;;;;;;16.87;100.00;102032.31;5323849;26;1236;-64
2024/04/14 02:23:17;;;;;;;;;;;;;;;16.84;100.00;102038.97;5309506;26;1265;-64
2024/04/14 02:25:52;;;;;;;;;;;;;;;16.79;100.00;102030.72;5369050;26;1857;-64
2024/04/14 02:28:18;;;;;;;;;;;;;;;16.81;100.00;102035.91;5370716;26;1436;-64
2024/04/14 02:30:43;;;;;;;;;;;;;;;16.81;100.00;102033.19;5373649;26;1259;-65
2024/04/14 02:33:09;;;;;;;;;;;;;;;16.79;100.00;102036.13;5374236;26;1231;-64
2024/04/14 02:35:34;;;;;;;;;;;;;;;16.78;100.00;102036.38;5373037;26;1314;-65
2024/04/14 02:38:00;;;;;;;;;;;;;;;16.78;100.00;102039.88;5353893;26;1209;-64
2024/04/14 02:40:25;;;;;;;;;;;;;;;16.79;100.00;102043.41;5371597;26;1260;-64
2024/04/14 02:42:50;;;;;;;;;;;;;;;16.77;100.00;102040.13;5364159;26;1309;-64
2024/04/14 02:45:16;;;;;;;;;;;;;;;16.75;100.00;102034.94;5364522;26;1837;-64
2024/04/14 02:47:41;;;;;;;;;;;;;;;16.74;100.00;102033.28;5363991;26;1209;-64
2024/04/14 02:50:06;;;;;;;;;;;;;;;16.75;100.00;102044.94;5347913;26;1875;-64
2024/04/14 02:52:31;;;;;;;;;;;;;;;16.73;100.00;102041.63;5360217;26;1253;-64
2024/04/14 02:54:57;;;;;;;;;;;;;;;16.71;100.00;102039.16;5375468;26;1267;-65
2024/04/14 02:57:23;;;;;;;;;;;;;;;16.70;100.00;102040.19;5358794;26;1298;-64
2024/04/14 02:59:48;;;;;;;;;;;;;;;16.69;100.00;102041.28;5361613;26;1153;-64
2024/04/14 03:02:13;;;;;;;;;;;;;;;16.67;100.00;102040.66;5329134;26;1840;-64
2024/04/14 03:04:39;;;;;;;;;;;;;;;16.64;100.00;102044.66;5297782;26;1400;-64
2024/04/14 03:07:05;;;;;;;;;;;;;;;16.64;100.00;102043.81;5342262;26;1855;-63
2024/04/14 03:09:30;;;;;;;;;;;;;;;16.62;100.00;102049.47;5371598;26;1468;-65
2024/04/14 03:11:56;;;;;;;;;;;;;;;16.61;100.00;102038.84;5371662;26;1383;-64
2024/04/14 03:14:21;;;;;;;;;;;;;;;16.59;100.00;102040.97;5364539;26;1238;-64
2024/04/14 03:16:47;;;;;;;;;;;;;;;16.57;100.00;102043.06;5372594;26;1529;-64
2024/04/14 03:19:12;;;;;;;;;;;;;;;16.56;100.00;102044.97;5311403;26;1199;-64
2024/04/14 03:21:38;;;;;;;;;;;;;;;16.52;100.00;102041.06;5372428;26;1243;-64
2024/04/14 03:24:03;;;;;;;;;;;;;;;16.49;100.00;102053.19;5344836;26;1267;-63
2024/04/14 03:26:28;;;;;;;;;;;;;;;16.51;100.00;102052.94;5372877;26;1822;-60
2024/04/14 03:28:54;;;;;;;;;;;;;;;16.48;100.00;102053.41;5365380;26;1441;-63
2024/04/14 03:31:20;;;;;;;;;;;;;;;16.47;100.00;102060.69;5362134;26;1139;-63
2024/04/14 03:33:45;;;;;;;;;;;;;;;16.47;100.00;102057.97;5365018;26;1269;-63
2024/04/14 03:36:10;;;;;;;;;;;;;;;16.46;100.00;102066.31;5340602;26;1331;-64
2024/04/14 03:38:36;;;;;;;;;;;;;;;16.44;100.00;102073.88;5374893;26;1271;-62
2024/04/14 03:41:01;;;;;;;;;;;;;;;16.43;100.00;102075.72;5372138;26;1185;-64
2024/04/14 03:43:27;;;;;;;;;;;;;;;16.44;100.00;102076.56;5359364;26;1164;-62
2024/04/14 03:45:52;;;;;;;;;;;;;;;16.44;100.00;102068.44;5364417;26;1833;-64
2024/04/14 03:48:19;;;;;;;;;;;;;;;16.42;100.00;102067.81;5363311;26;1191;-63
2024/04/14 03:50:45;;;;;;;;;;;;;;;16.35;100.00;102071.44;5370308;26;1279;-63
2024/04/14 03:53:13;;;;;;;;;;;;;;;16.37;100.00;102075.81;5352274;26;1247;-63
2024/04/14 03:55:38;;;;;;;;;;;;;;;16.40;100.00;102075.34;5366311;26;1295;-63
2024/04/14 03:58:03;;;;;;;;;;;;;;;16.39;100.00;102077.25;5351597;26;1694;-63
2024/04/14 04:00:29;;;;;;;;;;;;;;;16.34;100.00;102080.63;5373607;26;1187;-63
2024/04/14 04:02:54;;;;;;;;;;;;;;;16.34;100.00;102080.63;5363722;26;1323;-63
2024/04/14 04:05:19;;;;;;;;;;;;;;;16.33;100.00;102087.09;5371396;26;1879;-63
2024/04/14 04:07:48;;;;;;;;;;;;;;;16.30;100.00;102081.28;5358105;26;1354;-64
2024/04/14 04:10:13;;;;;;;;;;;;;;;16.26;100.00;102088.22;5356752;26;1475;-62
2024/04/14 04:12:39;;;;;;;;;;;;;;;16.24;100.00;102084.91;5341806;26;1856;-63
2024/04/14 04:15:04;;;;;;;;;;;;;;;16.23;100.00;102089.50;5362199;26;1535;-63
2024/04/14 04:17:29;;;;;;;;;;;;;;;16.22;100.00;102090.53;5360320;26;1282;-63
2024/04/14 04:19:55;;;;;;;;;;;;;;;16.19;100.00;102090.97;5373907;26;1400;-63
2024/04/14 04:22:20;;;;;;;;;;;;;;;16.19;100.00;102090.97;5361412;26;1100;-63
2024/04/14 04:24:45;;;;;;;;;;;;;;;16.16;100.00;102099.56;5372203;26;1446;-65
2024/04/14 04:27:10;;;;;;;;;;;;;;;16.13;100.00;102091.88;5367644;26;1845;-65
2024/04/14 04:29:36;;;;;;;;;;;;;;;16.12;100.00;102091.06;5367997;26;1207;-62
2024/04/14 04:32:01;;;;;;;;;;;;;;;16.10;100.00;102106.69;5374084;26;1196;-63
2024/04/14 04:34:26;;;;;;;;;;;;;;;16.11;100.00;102097.53;5350593;26;1083;-64
2024/04/14 04:36:52;;;;;;;;;;;;;;;16.11;100.00;102094.00;5371880;26;1389;-65
2024/04/14 04:39:17;;;;;;;;;;;;;;;16.08;100.00;102097.97;5364917;26;1345;-62
2024/04/14 04:41:42;;;;;;;;;;;;;;;16.10;100.00;102103.97;5364681;26;1354;-64
2024/04/14 04:44:09;;;;;;;;;;;;;;;16.08;100.00;102116.09;5372103;26;1594;-64
2024/04/14 04:46:34;;;;;;;;;;;;;;;16.03;100.00;102114.03;5373429;26;1830;-65
2024/04/14 04:49:00;;;;;;;;;;;;;;;16.04;100.00;102107.56;5310057;26;1635;-64
2024/04/14 04:51:26;;;;;;;;;;;;;;;16.02;100.00;102120.50;5356098;26;1243;-64
2024/04/14 04:53:52;;;;;;;;;;;;;;;16.00;100.00;102107.19;5365999;26;1233;-64
2024/04/14 04:56:17;;;;;;;;;;;;;;;15.99;100.00;102121.78;5371326;26;1596;-64
2024/04/14 04:58:42;;;;;;;;;;;;;;;15.98;100.00;102132.81;5348173;26;1556;-65
2024/04/14 05:01:08;;;;;;;;;;;;;;;15.92;100.00;102129.09;5342411;26;1172;-64
2024/04/14 05:03:34;;;;;;;;;;;;;;;15.94;100.00;102131.59;5371523;26;1168;-64
2024/04/14 05:05:59;;;;;;;;;;;;;;;15.94;100.00;102143.25;5311336;26;1829;-64
2024/04/14 05:08:25;;;;;;;;;;;;;;;15.89;100.00;102134.97;5370616;26;1297;-64
2024/04/14 05:10:56;;;;;;;;;;;;;;;15.95;100.00;102142.19;5368484;26;1208;-64
2024/04/14 05:13:22;;;;;;;;;;;;;;;15.97;100.00;102139.25;5361899;26;1307;-65
2024/04/14 05:15:47;;;;;;;;;;;;;;;15.98;100.00;102143.63;5361210;26;1329;-64
2024/04/14 05:18:12;;;;;;;;;;;;;;;15.98;100.00;102140.94;5363946;26;1283;-64
2024/04/14 05:20:38;;;;;;;;;;;;;;;15.98;100.00;102138.22;5370367;26;1350;-64
2024/04/14 05:23:03;;;;;;;;;;;;;;;15.96;100.00;102143.03;5360430;26;1534;-63
2024/04/14 05:25:28;;;;;;;;;;;;;;;15.94;100.00;102147.81;5365045;26;1859;-62
2024/04/14 05:27:54;;;;;;;;;;;;;;;15.91;100.00;102146.38;5354118;26;1512;-63
2024/04/14 05:30:19;;;;;;;;;;;;;;;15.89;100.00;102147.66;5319964;26;1623;-64
2024/04/14 05:32:44;;;;;;;;;;;;;;;15.87;100.00;102155.16;5359687;26;1511;-64
2024/04/14 05:35:10;;;;;;;;;;;;;;;15.90;100.00;102154.72;5361999;26;1440;-64
2024/04/14 05:37:35;;;;;;;;;;;;;;;15.86;100.00;102162.47;5353851;26;1486;-63
2024/04/14 05:40:00;;;;;;;;;;;;;;;15.88;100.00;102160.34;5344786;26;1283;-64
2024/04/14 05:42:26;;;;;;;;;;;;;;;15.90;100.00;102157.41;5320228;26;1402;-63
2024/04/14 05:44:51;;;;;;;;;;;;;;;15.89;100.00;102156.59;5373625;26;1509;-63
2024/04/14 05:47:16;;;;;;;;;;;;;;;15.89;100.00;102159.31;5365718;26;1837;-64
2024/04/14 05:49:42;;;;;;;;;;;;;;;15.86;100.00;102161.63;5316106;26;1367;-65
2024/04/14 05:52:07;;;;;;;;;;;;;;;15.81;100.00;102170.41;5315478;26;1415;-65
2024/04/14 05:54:33;;;;;;;;;;;;;;;15.81;100.00;102171.22;5331628;26;1286;-63
2024/04/14 05:56:58;;;;;;;;;;;;;;;15.81;100.00;102170.41;5336328;26;1589;-64
2024/04/14 05:59:24;;;;;;;;;;;;;;;15.72;100.00;102171.66;5359536;26;1193;-64
2024/04/14 06:01:49;;;;;;;;;;;;;;;15.72;100.00;102174.38;5355408;26;1556;-63
2024/04/14 06:04:15;;;;;;;;;;;;;;;15.75;100.00;102185.59;5371478;26;1353;-63
2024/04/14 06:06:40;;;;;;;;;;;;;;;15.75;100.00;102179.34;5356551;26;1841;-65
2024/04/14 06:09:05;;;;;;;;;;;;;;;15.74;100.00;102178.53;5331238;26;1312;-64
2024/04/14 06:11:31;;;;;;;;;;;;;;;15.76;100.00;102181.84;5306004;26;1399;-63
2024/04/14 06:13:56;;;;;;;;;;;;;;;15.73;100.00;102190.38;5360516;26;1809;-63
2024/04/14 06:16:21;;;;;;;;;;;;;;;15.76;100.00;102183.72;5347093;26;1398;-63
2024/04/14 06:18:48;;;;;;;;;;;;;;;15.80;100.00;102188.50;5357897;26;1323;-63
2024/04/14 06:21:13;;;;;;;;;;;;;;;15.80;100.00;102193.09;5345117;26;1229;-62
2024/04/14 06:23:39;;;;;;;;;;;;;;;15.81;100.00;102198.28;5338943;26;1497;-63
2024/04/14 06:26:04;;;;;;;;;;;;;;;15.81;100.00;102190.16;5369336;26;1868;-64
2024/04/14 06:28:30;;;;;;;;;;;;;;;15.81;100.00;102189.34;5371489;26;1486;-63
2024/04/14 06:30:55;;;;;;;;;;;;;;;15.84;100.00;102191.63;5368595;26;1305;-64
2024/04/14 06:33:21;;;;;;;;;;;;;;;15.85;100.00;102197.84;5313492;26;1372;-64
2024/04/14 06:35:46;;;;;;;;;;;;;;;15.91;100.00;102205.88;5374564;26;1250;-64
2024/04/14 06:38:11;;;;;;;;;;;;;;;15.89;100.00;102208.00;5371858;26;1315;-63
2024/04/14 06:40:38;;;;;;;;;;;;;;;15.88;100.00;102197.41;5369961;26;1354;-64
2024/04/14 06:43:03;;;;;;;;;;;;;;;15.89;100.00;102193.66;5353259;26;1335;-63
2024/04/14 06:45:29;;;;;;;;;;;;;;;15.88;100.00;102197.41;5333117;26;1825;-63
2024/04/14 06:47:54;;;;;;;;;;;;;;;15.90;100.00;102198.84;5336538;26;1184;-64
2024/04/14 06:50:19;;;;;;;;;;;;;;;15.93;100.00;102195.69;5358650;26;1354;-62
2024/04/14 06:52:45;;;;;;;;;;;;;;;15.92;100.00;102202.16;5373918;26;1475;-64
2024/04/14 06:55:12;;;;;;;;;;;;;;;15.95;100.00;102212.53;5369282;26;1362;-62
2024/04/14 06:57:37;;;;;;;;;;;;;;;15.92;100.00;102201.31;5309767;26;1677;-63
2024/04/14 07:00:03;;;;;;;;;;;;;;;15.96;100.00;102211.50;5355685;26;1491;-62
2024/04/14 07:02:28;;;;;;;;;;;;;;;15.95;100.00;102215.22;5356612;26;1348;-63
2024/04/14 07:04:53;;;;;;;;;;;;;;;15.92;100.00;102214.84;5360965;26;1531;-63
2024/04/14 07:07:19;;;;;;;;;;;;;;;15.90;100.00;102220.50;5323990;26;1842;-64
2024/04/14 07:09:44;;;;;;;;;;;;;;;15.96;100.00;102218.78;5358937;26;1476;-64
2024/04/14 07:12:09;;;;;;;;;;;;;;;15.95;100.00;102220.66;5370503;26;1348;-63
2024/04/14 07:14:34;;;;;;;;;;;;;;;15.95;100.00;102217.13;5360324;26;1469;-61
2024/04/14 07:17:00;;;;;;;;;;;;;;;15.93;100.00;102217.34;5368515;26;1153;-64
2024/04/14 07:19:25;;;;;;;;;;;;;;;15.95;100.00;102215.22;5369906;26;1367;-64
2024/04/14 07:21:50;;;;;;;;;;;;;;;15.95;100.00;102215.22;5361152;26;1269;-65
2024/04/14 07:24:16;;;;;;;;;;;;;;;16.04;100.00;102221.19;5312790;26;1291;-63
2024/04/14 07:26:41;;;;;;;;;;;;;;;16.03;100.00;102218.72;5347481;26;1841;-63
2024/04/14 07:29:06;;;;;;;;;;;;;;;15.97;100.00;102223.97;5368110;26;1369;-64
2024/04/14 07:31:32;;;;;;;;;;;;;;;16.03;100.00;102226.84;5368870;26;1356;-65
2024/04/14 07:34:00;;;;;;;;;;;;;;;16.00;100.00;102226.25;5358095;26;1386;-64
2024/04/14 07:36:25;;;;;;;;;;;;;;;16.01;100.00;102227.06;5367373;26;1536;-65
2024/04/14 07:38:51;;;;;;;;;;;;;;;16.00;100.00;102220.81;5313738;26;1572;-66
2024/04/14 07:41:16;;;;;;;;;;;;;;;16.02;100.00;102228.72;5330039;26;1331;-65
2024/04/14 07:43:41;;;;;;;;;;;;;;;16.04;100.00;102223.09;5361327;26;1584;-63
2024/04/14 07:46:07;;;;;;;;;;;;;;;16.05;100.00;102231.00;5325505;26;1833;-64
2024/04/14 07:48:32;;;;;;;;;;;;;;;16.06;100.00;102237.22;5278682;26;1540;-64
2024/04/14 07:50:57;;;;;;;;;;;;;;;16.06;100.00;102240.75;5369218;26;1256;-64
2024/04/14 07:53:22;;;;;;;;;;;;;;;16.06;100.00;102238.03;5363080;26;1580;-64
2024/04/14 07:55:48;;;;;;;;;;;;;;;15.91;100.00;102240.25;5362893;26;1154;-63
2024/04/14 07:58:13;;;;;;;;;;;;;;;16.00;100.00;102245.19;5364492;26;1364;-64
2024/04/14 08:00:38;;;;;;;;;;;;;;;16.04;100.00;102244.75;5340860;26;1564;-64
2024/04/14 08:03:04;;;;;;;;;;;;;;;16.05;100.00;102240.97;5334383;26;1311;-64
2024/04/14 08:05:29;;;;;;;;;;;;;;;16.07;100.00;102247.00;5327543;26;1849;-63
2024/04/14 08:07:54;;;;;;;;;;;;;;;16.08;100.00;102251.38;5361889;26;1332;-63
2024/04/14 08:10:19;;;;;;;;;;;;;;;16.10;100.00;102257.38;5357703;26;1569;-64
2024/04/14 08:12:45;;;;;;;;;;;;;;;16.11;100.00;102256.34;5334644;26;1400;-64
2024/04/14 08:15:10;;;;;;;;;;;;;;;16.12;100.00;102250.72;5356800;26;1691;-63
2024/04/14 08:17:35;;;;;;;;;;;;;;;16.22;100.00;102252.09;5361153;26;2109;-63
2024/04/14 08:20:01;;;;;;;;;;;;;;;16.32;100.00;102252.44;5353233;26;1320;-63
2024/04/14 08:22:26;;;;;;;;;;;;;;;16.38;100.00;102264.25;5365642;26;1350;-64
2024/04/14 08:24:51;;;;;;;;;;;;;;;16.39;100.00;102255.06;5370455;26;1377;-64
2024/04/14 08:27:16;;;;;;;;;;;;;;;16.40;100.00;102262.97;5372164;26;1834;-65
2024/04/14 08:29:42;;;;;;;;;;;;;;;16.47;100.00;102254.81;5363357;26;1338;-64
2024/04/14 08:32:07;;;;;;;;;;;;;;;16.52;100.00;102263.06;5341633;26;1281;-64
2024/04/14 08:34:32;;;;;;;;;;;;;;;16.55;100.00;102257.22;5348978;26;1379;-64
2024/04/14 08:36:58;;;;;;;;;;;;;;;16.59;100.00;102257.59;5339733;26;1316;-64
2024/04/14 08:39:23;;;;;;;;;;;;;;;16.58;100.00;102251.38;5367376;26;1243;-64
2024/04/14 08:41:48;;;;;;;;;;;;;;;16.60;100.00;102248.44;5342405;26;1435;-64
2024/04/14 08:44:14;;;;;;;;;;;;;;;16.58;100.00;102254.09;5371895;26;1260;-63
2024/04/14 08:46:40;;;;;;;;;;;;;;;16.59;100.00;102253.00;5371587;26;1863;-64
2024/04/14 08:49:06;;;;;;;;;;;;;;;16.66;100.00;102256.50;5338699;26;1412;-63
2024/04/14 08:51:31;;;;;;;;;;;;;;;16.69;100.00;102264.16;5328179;26;1189;-63
2024/04/14 08:53:57;;;;;;;;;;;;;;;16.71;100.00;102269.34;5364142;26;1311;-63
2024/04/14 08:56:26;;;;;;;;;;;;;;;16.69;100.00;102263.34;5342792;26;1181;-64
2024/04/14 08:58:53;;;;;;;;;;;;;;;16.70;100.00;102252.28;5353217;26;1381;-65
2024/04/14 09:01:19;;;;;;;;;;;;;;;16.73;100.00;102269.13;5325197;26;1428;-63
2024/04/14 09:03:45;;;;;;;;;;;;;;;16.70;100.00;102264.97;5348743;26;1190;-64
2024/04/14 09:06:10;;;;;;;;;;;;;;;16.70;100.00;102260.41;5372521;26;1862;-64
2024/04/14 09:08:35;;;;;;;;;;;;;;;16.72;100.00;102267.50;5371153;26;1448;-61
2024/04/14 09:11:01;;;;;;;;;;;;;;;16.72;100.00;102259.38;5340870;26;1451;-63
2024/04/14 09:13:27;;;;;;;;;;;;;;;16.74;100.00;102258.06;5343867;26;1367;-64
2024/04/14 09:15:53;;;;;;;;;;;;;;;16.73;100.00;102269.97;5376780;26;1250;-63
2024/04/14 09:18:19;;;;;;;;;;;;;;;16.73;100.00;102264.56;5342526;26;1365;-64
2024/04/14 09:20:44;;;;;;;;;;;;;;;16.75;100.00;102276.00;5376720;26;1192;-63
2024/04/14 09:23:09;;;;;;;;;;;;;;;16.75;100.00;102264.34;5373455;26;1188;-63
2024/04/14 09:25:35;;;;;;;;;;;;;;;16.76;100.00;102274.94;5363935;26;1865;-64
2024/04/14 09:28:01;;;;;;;;;;;;;;;16.80;100.00;102278.84;5365053;26;1327;-65
2024/04/14 09:30:26;;;;;;;;;;;;;;;16.83;100.00;102277.59;5375539;26;1348;-64
2024/04/14 09:32:51;;;;;;;;;;;;;;;16.84;100.00;102279.25;5334516;26;1245;-64
2024/04/14 09:35:18;;;;;;;;;;;;;;;16.84;100.00;102276.53;5352920;26;1239;-64
2024/04/14 09:37:43;;;;;;;;;;;;;;;16.91;100.00;102268.34;5374375;26;1315;-64
2024/04/14 09:40:09;;;;;;;;;;;;;;;16.90;100.00;102267.53;5355717;26;1299;-65
2024/04/14 09:42:34;;;;;;;;;;;;;;;16.96;100.00;102272.06;5344091;26;1240;-65
2024/04/14 09:45:01;;;;;;;;;;;;;;;16.99;100.00;102273.50;5341305;26;1240;-64
2024/04/14 09:47:26;;;;;;;;;;;;;;;17.03;100.00;102274.72;5345808;26;1834;-64
2024/04/14 09:49:52;;;;;;;;;;;;;;;17.05;100.00;102276.13;5374114;26;1323;-65
2024/04/14 09:52:17;;;;;;;;;;;;;;;17.05;100.00;102276.13;5371456;26;1383;-64
2024/04/14 09:54:43;;;;;;;;;;;;;;;16.95;100.00;102283.94;5314384;26;1339;-65
2024/04/14 09:57:08;;;;;;;;;;;;;;;17.01;100.00;102280.34;5366088;26;1234;-64
2024/04/14 09:59:34;;;;;;;;;;;;;;;17.04;100.00;102277.19;5366260;26;1201;-64
2024/04/14 10:01:59;;;;;;;;;;;;;;;17.03;100.00;102278.22;5362717;26;1200;-64
2024/04/14 10:04:24;;;;;;;;;;;;;;;17.10;100.00;102280.03;5374321;26;1559;-65
2024/04/14 10:06:49;;;;;;;;;;;;;;;17.12;100.00;102281.47;5334953;26;1838;-64
2024/04/14 10:09:15;;;;;;;;;;;;;;;17.16;100.00;102273.72;5356582;26;1255;-64
2024/04/14 10:11:41;;;;;;;;;;;;;;;17.19;100.00;102270.53;5345220;26;1277;-65
2024/04/14 10:14:10;;;;;;;;;;;;;;;17.18;100.00;102269.72;5354529;26;1258;-64
2024/04/14 10:16:35;;;;;;;;;;;;;;;17.17;100.00;102270.78;5374410;26;1380;-61
2024/04/14 10:19:04;;;;;;;;;;;;;;;17.14;100.00;102263.09;5353621;26;1219;-62
2024/04/14 10:21:29;;;;;;;;;;;;;;;17.15;100.00;102278.31;5340298;26;1193;-64
2024/04/14 10:23:57;;;;;;;;;;;;;;;17.14;100.00;102273.94;5343457;26;1374;-63
2024/04/14 10:26:23;;;;;;;;;;;;;;;17.13;100.00;102269.59;5351184;26;1849;-64
2024/04/14 10:28:51;;;;;;;;;;;;;;;17.11;100.00;102285.22;5373809;26;1162;-64
2024/04/14 10:31:34;;;;;;;;;;;;;;;17.10;100.00;102270.03;5367907;26;1307;-64
2024/04/14 10:34:06;;;;;;;;;;;;;;;17.10;100.00;102270.03;5356570;26;1144;-64
2024/04/14 10:36:35;;;;;;;;;;;;;;;17.12;100.00;102280.66;5371345;26;1294;-64
2024/04/14 10:39:04;;;;;;;;;;;;;;;17.13;100.00;102268.75;5345250;26;1266;-64
2024/04/14 10:41:29;;;;;;;;;;;;;;;17.19;100.00;102271.38;5364649;26;1152;-63
2024/04/14 10:43:54;;;;;;;;;;;;;;;17.21;100.00;102271.16;5363961;26;1536;-62
2024/04/14 10:46:19;;;;;;;;;;;;;;;17.23;100.00;102271.75;5328014;26;1830;-63
2024/04/14 10:48:45;;;;;;;;;;;;;;;17.05;100.00;102272.59;5373265;26;1231;-63
2024/04/14 10:51:11;;;;;;;;;;;;;;;17.16;100.00;102276.41;5345840;26;1494;-65
2024/04/14 10:53:36;;;;;;;;;;;;;;;17.15;100.00;102280.22;5363919;26;1247;-65
2024/04/14 10:56:02;;;;;;;;;;;;;;;17.17;100.00;102272.66;5374903;26;1105;-64
2024/04/14 10:58:27;;;;;;;;;;;;;;;17.16;100.00;102268.28;5374577;26;1224;-64
2024/04/14 11:00:53;;;;;;;;;;;;;;;17.18;100.00;102274.34;5342585;26;1260;-64
2024/04/14 11:03:18;;;;;;;;;;;;;;;17.18;100.00;102277.84;5360340;26;1319;-64
2024/04/14 11:05:43;;;;;;;;;;;;;;;17.15;100.00;102269.38;5372207;26;1825;-64
2024/04/14 11:08:11;;;;;;;;;;;;;;;17.19;100.00;102257.00;5363273;26;1555;-64
2024/04/14 11:10:36;;;;;;;;;;;;;;;17.20;100.00;102264.06;5322447;26;1374;-64
2024/04/14 11:13:01;;;;;;;;;;;;;;;17.20;100.00;102264.06;5334672;26;1639;-64
2024/04/14 11:15:27;;;;;;;;;;;;;;;17.21;100.00;102266.56;5330544;26;1376;-64
2024/04/14 11:17:52;;;;;;;;;;;;;;;17.19;100.00;102267.84;5358908;26;1757;-65
2024/04/14 11:20:18;;;;;;;;;;;;;;;17.23;100.00;102260.91;5371807;26;1223;-64
2024/04/14 11:22:43;;;;;;;;;;;;;;;17.22;100.00;102256.53;5361511;26;1259;-65
2024/04/14 11:25:08;;;;;;;;;;;;;;;17.22;100.00;102251.13;5358880;26;1570;-64
2024/04/14 11:27:34;;;;;;;;;;;;;;;17.27;100.00;102250.47;5363648;26;1822;-65
2024/04/14 11:29:59;;;;;;;;;;;;;;;17.28;100.00;102250.22;5360573;26;1844;-64
2024/04/14 11:32:29;;;;;;;;;;;;;;;17.31;100.00;102247.06;5369289;26;1563;-64
2024/04/14 11:34:55;;;;;;;;;;;;;;;17.29;100.00;102234.78;5360458;26;1462;-63
2024/04/14 11:37:21;;;;;;;;;;;;;;;17.30;100.00;102242.69;5363595;26;1374;-63
2024/04/14 11:39:48;;;;;;;;;;;;;;;17.30;100.00;102236.44;5322163;26;1411;-63
2024/04/14 11:42:14;;;;;;;;;;;;;;;17.31;100.00;102229.94;5361080;26;1365;-63
2024/04/14 11:44:39;;;;;;;;;;;;;;;17.31;100.00;102222.66;5351859;26;1628;-63
2024/04/14 11:47:04;;;;;;;;;;;;;;;17.32;100.00;102240.56;5332367;26;1866;-64
2024/04/14 11:49:29;;;;;;;;;;;;;;;17.36;100.00;102230.94;5362442;26;1415;-63
2024/04/14 11:51:55;;;;;;;;;;;;;;;17.36;100.00;102225.50;5333789;26;1589;-61
2024/04/14 11:54:20;;;;;;;;;;;;;;;17.37;100.00;102223.63;5360839;26;1357;-64
2024/04/14 11:56:45;;;;;;;;;;;;;;;17.40;100.00;102226.72;5371795;26;1479;-64
2024/04/14 11:59:10;;;;;;;;;;;;;;;17.39;100.00;102227.75;5357472;26;1445;-64
2024/04/14 12:01:36;;;;;;;;;;;;;;;17.41;100.00;102216.69;5360887;26;1687;-64
2024/04/14 12:04:01;;;;;;;;;;;;;;;17.40;100.00;102224.00;5358336;26;1838;-64
2024/04/14 12:06:26;;;;;;;;;;;;;;;17.42;100.00;102212.09;5350838;26;1841;-64
2024/04/14 12:08:52;;;;;;;;;;;;;;;17.43;100.00;102221.88;5357859;26;1580;-64
2024/04/14 12:11:17;;;;;;;;;;;;;;;17.43;100.00;102209.16;5318960;26;1423;-63
2024/04/14 12:13:45;;;;;;;;;;;;;;;17.44;100.00;102213.50;5356317;26;1358;-64
2024/04/14 12:16:10;;;;;;;;;;;;;;;17.46;100.00;102214.13;5369096;26;1489;-64
2024/04/14 12:18:36;;;;;;;;;;;;;;;17.47;100.00;102226.59;5367189;26;1318;-63
2024/04/14 12:21:02;;;;;;;;;;;;;;;17.46;100.00;102227.69;5328048;26;1350;-64
2024/04/14 12:23:27;;;;;;;;;;;;;;;17.47;100.00;102223.91;5335918;26;1434;-63
2024/04/14 12:25:52;;;;;;;;;;;;;;;17.50;100.00;102218.03;5361317;26;1830;-65